createdAt,value
2018-05-26T00:02:09.704Z,7.50
2018-05-26T00:04:37.267Z,8.33
2018-05-26T00:07:04.819Z,8.53
2018-05-26T00:09:32.456Z,7.70
2018-05-26T00:12:00.027Z,7.33
2018-05-26T00:14:27.558Z,7.80
2018-05-26T00:16:55.161Z,8.10
2018-05-26T00:19:22.705Z,7.90
2018-05-26T00:21:50.311Z,7.93
2018-05-26T00:24:18.597Z,8.93
2018-05-26T00:26:46.941Z,9.80
2018-05-26T00:29:14.549Z,8.67
2018-05-26T00:31:42.131Z,8.77
2018-05-26T00:34:09.735Z,8.13
2018-05-26T00:36:37.323Z,7.40
2018-05-26T00:39:04.946Z,8.07
2018-05-26T00:41:32.491Z,7.07
2018-05-26T00:44:00.099Z,7.63
2018-05-26T00:46:28.451Z,8.20
2018-05-26T00:48:56.059Z,8.03
2018-05-26T00:51:23.586Z,7.97
2018-05-26T00:53:51.211Z,7.17
2018-05-26T00:56:18.753Z,8.37
2018-05-26T00:58:46.338Z,7.50
2018-05-26T01:01:14.662Z,7.20
2018-05-26T01:03:42.244Z,7.73
2018-05-26T01:06:09.887Z,8.30
2018-05-26T01:08:38.239Z,7.90
2018-05-26T01:11:05.871Z,9.00
2018-05-26T01:13:33.420Z,8.03
2018-05-26T01:16:00.944Z,8.47
2018-05-26T01:18:29.328Z,9.10
2018-05-26T01:20:56.873Z,8.73
2018-05-26T01:23:24.463Z,10.73
2018-05-26T01:25:51.975Z,9.63
2018-05-26T01:28:19.529Z,10.07
2018-05-26T01:30:47.111Z,11.63
2018-05-26T01:33:14.648Z,9.60
2018-05-26T01:35:42.166Z,9.70
2018-05-26T01:38:09.778Z,10.30
2018-05-26T01:40:37.364Z,9.80
2018-05-26T01:43:04.883Z,10.00
2018-05-26T01:45:33.191Z,9.97
2018-05-26T01:48:01.532Z,10.33
2018-05-26T01:50:29.078Z,10.07
2018-05-26T01:52:57.423Z,10.00
2018-05-26T01:55:25.023Z,10.43
2018-05-26T01:57:52.570Z,10.30
2018-05-26T02:00:20.205Z,10.50
2018-05-26T02:02:47.782Z,10.03
2018-05-26T02:05:15.383Z,11.20
2018-05-26T02:07:42.982Z,10.97
2018-05-26T02:10:10.573Z,10.77
2018-05-26T02:12:38.925Z,11.23
2018-05-26T02:15:06.492Z,11.37
2018-05-26T02:17:34.023Z,11.70
2018-05-26T02:20:01.609Z,12.80
2018-05-26T02:22:29.170Z,12.53
2018-05-26T02:24:56.731Z,12.17
2018-05-26T02:27:24.310Z,12.97
2018-05-26T02:29:55.426Z,12.03
2018-05-26T02:32:23.800Z,12.27
2018-05-26T02:34:51.396Z,11.70
2018-05-26T02:37:19.028Z,11.50
2018-05-26T02:39:46.619Z,11.70
2018-05-26T02:42:14.172Z,12.03
2018-05-26T02:44:42.558Z,12.67
2018-05-26T02:47:10.124Z,13.40
2018-05-26T02:49:37.712Z,12.27
2018-05-26T02:52:05.275Z,12.87
2018-05-26T02:54:32.802Z,12.80
2018-05-26T02:57:00.316Z,12.40
2018-05-26T02:59:27.859Z,12.40
2018-05-26T03:01:55.403Z,11.83
2018-05-26T03:04:28.645Z,12.07
2018-05-26T03:07:01.863Z,12.23
2018-05-26T03:09:35.142Z,12.70
2018-05-26T03:12:08.449Z,12.63
2018-05-26T03:14:41.580Z,11.90
2018-05-26T03:17:10.566Z,11.77
2018-05-26T03:19:38.921Z,13.97
2018-05-26T03:22:06.466Z,12.33
2018-05-26T03:24:34.100Z,13.83
2018-05-26T03:27:01.734Z,12.27
2018-05-26T03:29:29.539Z,13.00
2018-05-26T03:31:57.170Z,13.23
2018-05-26T03:34:24.799Z,13.37
2018-05-26T03:36:53.116Z,13.10
2018-05-26T03:39:20.663Z,12.40
2018-05-26T03:41:48.238Z,13.03
2018-05-26T03:44:15.801Z,14.20
2018-05-26T03:46:43.410Z,13.03
2018-05-26T03:49:10.974Z,13.80
2018-05-26T03:51:38.492Z,12.97
2018-05-26T03:54:06.036Z,14.00
2018-05-26T03:56:45.277Z,14.20
2018-05-26T03:59:19.630Z,13.20
2018-05-26T04:01:47.170Z,13.57
2018-05-26T04:04:15.567Z,11.87
2018-05-26T04:06:44.714Z,15.30
2018-05-26T04:09:12.255Z,13.77
2018-05-26T04:11:39.807Z,13.13
2018-05-26T04:14:07.407Z,13.40
2018-05-26T04:16:35.414Z,12.20
2018-05-26T04:19:02.972Z,11.60
2018-05-26T04:21:30.503Z,11.70
2018-05-26T04:23:58.857Z,12.50
2018-05-26T04:26:26.455Z,12.17
2018-05-26T04:28:54.049Z,11.20
2018-05-26T04:31:21.611Z,12.03
2018-05-26T04:33:49.197Z,12.03
2018-05-26T04:36:16.806Z,11.87
2018-05-26T04:38:44.632Z,11.40
2018-05-26T04:41:12.926Z,11.10
2018-05-26T04:43:41.266Z,10.30
2018-05-26T04:46:08.790Z,12.30
2018-05-26T04:48:36.340Z,11.30
2018-05-26T04:51:04.215Z,11.70
2018-05-26T04:53:31.758Z,11.87
2018-05-26T04:55:59.306Z,12.87
2018-05-26T04:58:26.882Z,12.40
2018-05-26T05:00:54.448Z,12.80
2018-05-26T05:03:22.058Z,12.20
2018-05-26T05:05:49.586Z,11.70
2018-05-26T05:08:17.115Z,12.40
2018-05-26T05:10:44.749Z,12.03
2018-05-26T05:13:12.264Z,12.70
2018-05-26T05:15:39.848Z,12.43
2018-05-26T05:18:07.379Z,13.20
2018-05-26T05:20:35.709Z,12.23
2018-05-26T05:23:04.047Z,12.30
2018-05-26T05:25:31.586Z,12.47
2018-05-26T05:27:59.110Z,12.10
2018-05-26T05:30:26.685Z,11.67
2018-05-26T05:32:54.332Z,12.37
2018-05-26T05:35:21.912Z,11.97
2018-05-26T05:37:49.452Z,12.37
2018-05-26T05:40:16.960Z,12.27
2018-05-26T05:42:44.800Z,13.50
2018-05-26T05:45:12.351Z,12.17
2018-05-26T05:47:39.950Z,13.80
2018-05-26T05:50:07.488Z,13.00
2018-05-26T05:52:36.315Z,11.53
2018-05-26T05:55:03.910Z,12.50
2018-05-26T05:57:32.243Z,12.97
2018-05-26T06:00:00.546Z,12.93
2018-05-26T06:02:28.855Z,12.37
2018-05-26T06:04:56.392Z,12.83
2018-05-26T06:07:23.985Z,12.30
2018-05-26T06:09:52.292Z,12.73
2018-05-26T06:12:19.900Z,10.97
2018-05-26T06:14:47.429Z,12.20
2018-05-26T06:17:15.051Z,11.87
2018-05-26T06:19:42.610Z,11.40
2018-05-26T06:22:10.204Z,11.70
2018-05-26T06:24:37.779Z,10.97
2018-05-26T06:27:05.360Z,10.70
2018-05-26T06:29:32.866Z,10.53
2018-05-26T06:32:00.439Z,9.70
2018-05-26T06:34:28.034Z,12.47
2018-05-26T06:36:55.558Z,10.70
2018-05-26T06:39:23.109Z,11.10
2018-05-26T06:41:50.654Z,12.10
2018-05-26T06:44:18.200Z,11.87
2018-05-26T06:46:45.819Z,10.73
2018-05-26T06:49:13.383Z,11.63
2018-05-26T06:51:40.915Z,12.37
2018-05-26T06:54:08.452Z,12.40
2018-05-26T06:56:36.051Z,11.30
2018-05-26T06:59:03.593Z,11.67
2018-05-26T07:01:31.900Z,12.00
2018-05-26T07:03:59.490Z,11.77
2018-05-26T07:06:27.259Z,10.63
2018-05-26T07:08:55.671Z,10.53
2018-05-26T07:11:23.232Z,11.10
2018-05-26T07:13:50.806Z,11.90
2018-05-26T07:16:18.368Z,10.50
2018-05-26T07:18:45.977Z,9.70
2018-05-26T07:21:13.550Z,10.33
2018-05-26T07:23:41.153Z,9.60
2018-05-26T07:26:08.701Z,9.90
2018-05-26T07:28:36.417Z,8.90
2018-05-26T07:31:04.066Z,8.90
2018-05-26T07:33:31.582Z,8.93
2018-05-26T07:35:59.194Z,9.17
2018-05-26T07:38:26.804Z,10.07
2018-05-26T07:40:54.416Z,8.23
2018-05-26T07:43:21.986Z,6.20
2018-05-26T07:45:49.567Z,6.30
2018-05-26T07:48:17.156Z,7.03
2018-05-26T07:50:44.743Z,7.03
2018-05-26T07:53:12.372Z,6.97
2018-05-26T07:55:39.935Z,7.40
2018-05-26T07:58:07.520Z,5.33
2018-05-26T08:00:35.155Z,5.40
2018-05-26T08:03:03.447Z,5.40
2018-05-26T08:05:31.742Z,4.67
2018-05-26T08:08:00.023Z,5.20
2018-05-26T08:10:27.599Z,5.13
2018-05-26T08:12:55.184Z,5.60
2018-05-26T08:15:22.790Z,4.97
2018-05-26T08:17:50.404Z,5.57
2018-05-26T08:20:17.929Z,6.30
2018-05-26T08:22:45.543Z,6.73
2018-05-26T08:25:13.133Z,6.47
2018-05-26T08:27:40.737Z,5.97
2018-05-26T08:30:08.325Z,6.30
2018-05-26T08:32:35.902Z,7.50
2018-05-26T08:35:03.517Z,6.50
2018-05-26T08:37:31.098Z,5.33
2018-05-26T08:39:58.682Z,6.80
2018-05-26T08:42:26.297Z,6.47
2018-05-26T08:44:53.916Z,5.83
2018-05-26T08:47:21.436Z,7.23
2018-05-26T08:49:49.050Z,6.70
2018-05-26T08:52:16.628Z,6.63
2018-05-26T08:54:44.277Z,6.73
2018-05-26T08:57:11.865Z,5.77
2018-05-26T08:59:39.444Z,6.23
2018-05-26T09:02:07.043Z,6.50
2018-05-26T09:04:34.577Z,5.57
2018-05-26T09:07:02.175Z,6.30
2018-05-26T09:09:29.687Z,5.00
2018-05-26T09:11:57.265Z,5.40
2018-05-26T09:14:24.791Z,5.80
2018-05-26T09:16:52.319Z,5.37
2018-05-26T09:19:19.932Z,5.70
2018-05-26T09:21:47.524Z,5.60
2018-05-26T09:24:15.109Z,5.93
2018-05-26T09:26:42.692Z,6.20
2018-05-26T09:29:10.235Z,4.57
2018-05-26T09:31:38.544Z,5.50
2018-05-26T09:34:06.090Z,4.97
2018-05-26T09:36:33.698Z,5.30
2018-05-26T09:39:02.028Z,5.17
2018-05-26T09:41:29.639Z,4.70
2018-05-26T09:43:57.206Z,6.30
2018-05-26T09:46:24.780Z,5.10
2018-05-26T09:48:52.617Z,5.00
2018-05-26T09:51:20.158Z,4.57
2018-05-26T09:53:47.669Z,4.30
2018-05-26T09:56:15.320Z,4.30
2018-05-26T09:58:42.901Z,4.27
2018-05-26T10:01:10.465Z,4.40
2018-05-26T10:03:38.015Z,4.03
2018-05-26T10:06:05.543Z,4.20
2018-05-26T10:08:33.724Z,4.20
2018-05-26T10:11:02.232Z,5.07
2018-05-26T10:13:30.593Z,3.67
2018-05-26T10:15:58.102Z,3.97
2018-05-26T10:18:25.683Z,4.30
2018-05-26T10:20:53.222Z,3.87
2018-05-26T10:23:20.762Z,4.27
2018-05-26T10:25:48.335Z,3.83
2018-05-26T10:28:15.941Z,4.80
2018-05-26T10:30:43.468Z,4.07
2018-05-26T10:33:11.012Z,3.90
2018-05-26T10:35:38.654Z,4.40
2018-05-26T10:38:06.210Z,4.10
2018-05-26T10:40:39.694Z,4.20
2018-05-26T10:43:07.313Z,4.00
2018-05-26T10:45:51.447Z,3.73
2018-05-26T10:48:19.118Z,3.70
2018-05-26T10:50:46.717Z,3.57
2018-05-26T10:53:14.339Z,3.47
2018-05-26T10:55:41.960Z,3.20
2018-05-26T10:58:09.511Z,3.50
2018-05-26T11:00:37.167Z,3.30
2018-05-26T11:03:05.522Z,2.90
2018-05-26T11:05:33.128Z,3.63
2018-05-26T11:08:00.711Z,3.33
2018-05-26T11:10:28.290Z,3.90
2018-05-26T11:12:55.832Z,3.60
2018-05-26T11:15:23.447Z,3.60
2018-05-26T11:17:51.175Z,3.90
2018-05-26T11:20:18.573Z,3.87
2018-05-26T11:22:46.929Z,4.13
2018-05-26T11:25:14.502Z,3.80
2018-05-26T11:27:42.098Z,4.10
2018-05-26T11:30:09.669Z,3.80
2018-05-26T11:32:37.214Z,4.43
2018-05-26T11:35:05.523Z,4.07
2018-05-26T11:37:33.064Z,4.00
2018-05-26T11:40:00.607Z,3.87
2018-05-26T11:42:28.199Z,5.70
2018-05-26T11:44:55.775Z,3.50
2018-05-26T11:47:23.286Z,4.30
2018-05-26T11:49:50.875Z,3.70
2018-05-26T11:52:18.443Z,3.37
2018-05-26T11:54:46.059Z,3.00
2018-05-26T11:57:13.571Z,2.80
2018-05-26T11:59:41.137Z,3.43
2018-05-26T12:02:09.514Z,3.03
2018-05-26T12:04:37.012Z,2.97
2018-05-26T12:07:04.567Z,3.93
2018-05-26T12:09:32.127Z,2.70
2018-05-26T12:11:59.725Z,2.83
2018-05-26T12:14:27.303Z,3.67
2018-05-26T12:16:54.888Z,3.20
2018-05-26T12:19:22.427Z,3.00
2018-05-26T12:21:50.731Z,3.23
2018-05-26T12:24:19.090Z,3.10
2018-05-26T12:26:46.688Z,3.10
2018-05-26T12:29:14.228Z,3.20
2018-05-26T12:31:41.757Z,3.30
2018-05-26T12:34:09.280Z,3.27
2018-05-26T12:36:36.860Z,3.53
2018-05-26T12:39:04.419Z,3.40
2018-05-26T12:41:31.943Z,2.93
2018-05-26T12:43:59.458Z,3.03
2018-05-26T12:46:26.979Z,3.50
2018-05-26T12:48:55.304Z,3.00
2018-05-26T12:51:22.828Z,3.00
2018-05-26T12:53:50.401Z,3.50
2018-05-26T12:56:17.909Z,2.90
2018-05-26T12:58:45.442Z,2.80
2018-05-26T13:01:13.052Z,4.17
2018-05-26T13:03:40.602Z,2.60
2018-05-26T13:06:08.240Z,3.17
2018-05-26T13:08:35.734Z,2.70
2018-05-26T13:11:03.292Z,3.10
2018-05-26T13:13:30.893Z,3.00
2018-05-26T13:15:58.438Z,3.27
2018-05-26T13:18:26.022Z,3.23
2018-05-26T13:20:53.557Z,2.90
2018-05-26T13:23:21.946Z,2.90
2018-05-26T13:25:49.528Z,3.57
2018-05-26T13:28:17.093Z,3.63
2018-05-26T13:30:44.671Z,2.90
2018-05-26T13:33:12.307Z,3.50
2018-05-26T13:35:40.613Z,2.90
2018-05-26T13:38:08.699Z,3.30
2018-05-26T13:40:36.226Z,3.43
2018-05-26T13:43:03.791Z,4.10
2018-05-26T13:45:31.287Z,2.87
2018-05-26T13:47:58.880Z,2.80
2018-05-26T13:50:26.443Z,3.30
2018-05-26T13:52:54.094Z,3.50
2018-05-26T13:55:21.634Z,3.30
2018-05-26T13:57:49.171Z,3.70
2018-05-26T14:00:16.677Z,3.10
2018-05-26T14:02:44.207Z,3.67
2018-05-26T14:05:11.831Z,3.80
2018-05-26T14:07:39.416Z,3.23
2018-05-26T14:10:07.001Z,3.47
2018-05-26T14:12:35.363Z,3.43
2018-05-26T14:15:02.955Z,3.33
2018-05-26T14:17:30.463Z,3.37
2018-05-26T14:19:58.848Z,3.30
2018-05-26T14:22:26.396Z,3.20
2018-05-26T14:24:53.904Z,3.30
2018-05-26T14:27:21.442Z,3.37
2018-05-26T14:29:49.811Z,3.20
2018-05-26T14:32:17.392Z,3.00
2018-05-26T14:34:44.918Z,3.00
2018-05-26T14:37:12.484Z,3.67
2018-05-26T14:39:40.075Z,3.53
2018-05-26T14:42:07.699Z,3.53
2018-05-26T14:44:35.430Z,3.93
2018-05-26T14:47:02.990Z,3.13
2018-05-26T14:49:30.648Z,3.37
2018-05-26T14:51:58.209Z,3.00
2018-05-26T14:54:25.800Z,3.30
2018-05-26T14:56:53.323Z,3.73
2018-05-26T14:59:20.867Z,2.80
2018-05-26T15:01:48.417Z,3.37
2018-05-26T15:04:16.043Z,3.10
2018-05-26T15:06:43.624Z,3.10
2018-05-26T15:09:11.244Z,3.70
2018-05-26T15:11:38.843Z,3.50
2018-05-26T15:14:06.364Z,3.27
2018-05-26T15:16:33.903Z,3.87
2018-05-26T15:19:01.644Z,3.17
2018-05-26T15:21:29.205Z,3.30
2018-05-26T15:23:56.727Z,3.20
2018-05-26T15:26:24.233Z,3.83
2018-05-26T15:28:52.498Z,3.43
2018-05-26T15:31:20.783Z,3.80
2018-05-26T15:33:49.050Z,3.90
2018-05-26T15:36:17.316Z,4.23
2018-05-26T15:38:44.835Z,3.50
2018-05-26T15:41:12.549Z,3.60
2018-05-26T15:43:40.826Z,4.63
2018-05-26T15:46:09.087Z,3.90
2018-05-26T15:48:36.603Z,3.63
2018-05-26T15:51:04.096Z,4.17
2018-05-26T15:53:31.609Z,3.37
2018-05-26T15:55:59.101Z,3.87
2018-05-26T15:58:26.593Z,3.73
2018-05-26T16:00:54.110Z,3.70
2018-05-26T16:03:21.607Z,4.40
2018-05-26T16:05:49.114Z,3.50
2018-05-26T16:08:16.606Z,3.60
2018-05-26T16:10:44.117Z,3.60
2018-05-26T16:13:11.601Z,3.73
2018-05-26T16:15:39.115Z,3.77
2018-05-26T16:18:07.384Z,3.70
2018-05-26T16:20:34.902Z,3.80
2018-05-26T16:23:02.403Z,3.83
2018-05-26T16:25:29.903Z,4.23
2018-05-26T16:27:57.411Z,4.23
2018-05-26T16:30:24.914Z,4.40
2018-05-26T16:32:52.429Z,4.00
2018-05-26T16:35:20.047Z,4.33
2018-05-26T16:37:47.558Z,4.23
2018-05-26T16:40:15.046Z,4.17
2018-05-26T16:42:42.567Z,4.30
2018-05-26T16:45:10.155Z,4.20
2018-05-26T16:47:38.422Z,4.17
2018-05-26T16:50:06.701Z,4.23
2018-05-26T16:52:34.957Z,4.30
2018-05-26T16:55:02.471Z,4.53
2018-05-26T16:57:29.962Z,3.90
2018-05-26T16:59:57.470Z,3.87
2018-05-26T17:02:25.776Z,4.43
2018-05-26T17:04:53.292Z,4.07
2018-05-26T17:07:20.789Z,3.93
2018-05-26T17:09:48.318Z,3.30
2018-05-26T17:12:16.575Z,3.60
2018-05-26T17:14:44.071Z,3.97
2018-05-26T17:17:11.589Z,4.27
2018-05-26T17:19:39.078Z,3.83
2018-05-26T17:22:07.346Z,4.07
2018-05-26T17:24:35.602Z,4.93
2018-05-26T17:27:03.904Z,4.90
2018-05-26T17:29:32.162Z,6.43
2018-05-26T17:31:59.677Z,8.10
2018-05-26T17:34:27.183Z,8.23
2018-05-26T17:36:54.698Z,7.20
2018-05-26T17:39:22.206Z,5.20
2018-05-26T17:41:50.471Z,4.60
2018-05-26T17:44:17.981Z,4.27
2018-05-26T17:46:45.489Z,4.70
2018-05-26T17:49:13.004Z,3.97
2018-05-26T17:51:40.501Z,5.00
2018-05-26T17:54:08.048Z,4.07
2018-05-26T17:56:35.537Z,4.40
2018-05-26T17:59:03.022Z,4.40
2018-05-26T18:01:31.298Z,5.10
2018-05-26T18:03:58.800Z,5.30
2018-05-26T18:06:26.306Z,4.30
2018-05-26T18:08:54.582Z,4.57
2018-05-26T18:11:22.107Z,4.20
2018-05-26T18:13:49.599Z,4.50
2018-05-26T18:16:17.905Z,4.63
2018-05-26T18:18:45.407Z,4.93
2018-05-26T18:21:12.946Z,4.40
2018-05-26T18:23:40.433Z,4.93
2018-05-26T18:26:07.927Z,5.17
2018-05-26T18:28:35.458Z,4.80
2018-05-26T18:31:02.972Z,4.63
2018-05-26T18:33:30.549Z,4.80
2018-05-26T18:35:58.047Z,4.70
2018-05-26T18:38:26.349Z,5.70
2018-05-26T18:40:54.602Z,5.77
2018-05-26T18:43:22.114Z,5.10
2018-05-26T18:45:49.605Z,5.40
2018-05-26T18:48:17.095Z,5.30
2018-05-26T18:50:45.378Z,5.73
2018-05-26T18:53:13.641Z,4.77
2018-05-26T18:55:41.936Z,5.33
2018-05-26T18:58:09.454Z,5.20
2018-05-26T19:00:36.978Z,5.03
2018-05-26T19:03:04.482Z,5.83
2018-05-26T19:05:31.997Z,7.07
2018-05-26T19:07:59.491Z,5.33
2018-05-26T19:10:26.997Z,15.60
2018-05-26T19:12:54.536Z,14.43
2018-05-26T19:15:22.806Z,17.00
2018-05-26T19:17:50.339Z,17.70
2018-05-26T19:20:17.862Z,12.07
2018-05-26T19:22:45.392Z,12.30
2018-05-26T19:25:13.671Z,9.87
2018-05-26T19:27:41.962Z,8.23
2018-05-26T19:30:09.466Z,8.23
2018-05-26T19:32:36.978Z,7.80
2018-05-26T19:35:05.243Z,6.70
2018-05-26T19:37:33.502Z,6.10
2018-05-26T19:40:01.018Z,7.57
2018-05-26T19:42:28.515Z,5.80
2018-05-26T19:44:56.034Z,6.40
2018-05-26T19:47:23.531Z,7.00
2018-05-26T19:49:51.070Z,5.47
2018-05-26T19:52:18.554Z,7.07
2018-05-26T19:54:46.143Z,5.60
2018-05-26T19:57:14.409Z,6.07
2018-05-26T19:59:41.902Z,5.87
2018-05-26T20:02:09.429Z,5.20
2018-05-26T20:04:36.925Z,5.30
2018-05-26T20:07:04.429Z,5.43
2018-05-26T20:09:31.929Z,5.37
2018-05-26T20:11:59.448Z,6.20
2018-05-26T20:14:26.956Z,5.40
2018-05-26T20:16:54.465Z,6.30
2018-05-26T20:19:21.961Z,6.17
2018-05-26T20:21:50.225Z,7.17
2018-05-26T20:24:18.506Z,7.10
2018-05-26T20:26:46.774Z,6.60
2018-05-26T20:29:15.049Z,7.10
2018-05-26T20:31:43.312Z,5.73
2018-05-26T20:34:11.049Z,5.77
2018-05-26T20:36:38.551Z,6.40
2018-05-26T20:39:06.069Z,5.57
2018-05-26T20:41:33.560Z,6.33
2018-05-26T20:44:01.074Z,5.80
2018-05-26T20:46:28.602Z,6.80
2018-05-26T20:48:56.876Z,7.13
2018-05-26T20:51:25.176Z,5.93
2018-05-26T20:53:52.661Z,6.67
2018-05-26T20:56:20.185Z,5.60
2018-05-26T20:58:47.697Z,5.10
2018-05-26T21:01:15.206Z,5.47
2018-05-26T21:03:42.709Z,5.83
2018-05-26T21:06:10.234Z,5.37
2018-05-26T21:08:37.756Z,6.00
2018-05-26T21:11:05.254Z,5.43
2018-05-26T21:13:32.822Z,5.80
2018-05-26T21:16:00.311Z,5.90
2018-05-26T21:18:27.827Z,5.63
2018-05-26T21:20:55.343Z,5.40
2018-05-26T21:23:22.833Z,5.80
2018-05-26T21:25:51.111Z,6.03
2018-05-26T21:28:19.375Z,5.80
2018-05-26T21:30:47.682Z,5.40
2018-05-26T21:33:15.169Z,5.50
2018-05-26T21:35:42.687Z,5.50
2018-05-26T21:38:10.940Z,5.77
2018-05-26T21:40:38.458Z,6.13
2018-05-26T21:43:05.961Z,5.50
2018-05-26T21:45:33.477Z,6.40
2018-05-26T21:48:00.979Z,6.10
2018-05-26T21:50:29.255Z,6.60
2018-05-26T21:52:56.770Z,6.10
2018-05-26T21:55:24.270Z,6.40
2018-05-26T21:57:51.788Z,6.37
2018-05-26T22:00:19.284Z,5.73
2018-05-26T22:02:46.806Z,6.00
2018-05-26T22:05:14.302Z,6.03
2018-05-26T22:07:41.823Z,6.50
2018-05-26T22:10:09.336Z,5.67
2018-05-26T22:12:37.639Z,5.93
2018-05-26T22:15:05.126Z,5.77
2018-05-26T22:17:32.629Z,5.50
2018-05-26T22:20:00.931Z,6.47
2018-05-26T22:22:28.489Z,6.57
2018-05-26T22:24:56.014Z,5.53
2018-05-26T22:27:23.516Z,6.03
2018-05-26T22:29:51.254Z,5.03
2018-05-26T22:32:18.748Z,5.90
2018-05-26T22:34:46.291Z,5.77
2018-05-26T22:37:13.855Z,5.40
2018-05-26T22:39:41.354Z,6.37
2018-05-26T22:42:08.870Z,6.77
2018-05-26T22:44:37.188Z,6.30
2018-05-26T22:47:04.728Z,5.80
2018-05-26T22:49:32.237Z,5.97
2018-05-26T22:51:59.760Z,5.77
2018-05-26T22:54:27.273Z,5.90
2018-05-26T22:56:54.811Z,6.60
2018-05-26T22:59:22.334Z,6.07
2018-05-26T23:01:49.834Z,5.83
2018-05-26T23:04:17.360Z,5.80
2018-05-26T23:06:44.864Z,6.47
2018-05-26T23:09:13.159Z,6.23
2018-05-26T23:11:41.424Z,6.10
2018-05-26T23:14:09.691Z,5.53
2018-05-26T23:16:37.206Z,5.40
2018-05-26T23:19:04.697Z,6.20
2018-05-26T23:21:32.214Z,5.27
2018-05-26T23:24:00.479Z,5.40
2018-05-26T23:26:28.015Z,6.10
2018-05-26T23:28:55.511Z,6.23
2018-05-26T23:31:23.004Z,5.70
2018-05-26T23:33:50.522Z,5.83
2018-05-26T23:36:18.023Z,6.17
2018-05-26T23:38:45.556Z,5.77
2018-05-26T23:41:13.051Z,5.70
2018-05-26T23:43:40.560Z,6.20
2018-05-26T23:46:08.065Z,5.07
2018-05-26T23:48:35.621Z,6.63
2018-05-26T23:51:03.099Z,6.03
2018-05-26T23:53:30.627Z,6.63
2018-05-26T23:55:58.142Z,9.43
2018-05-26T23:58:26.435Z,7.20
